Terminal Aerodrome Forecast
Issued by NWS

Current Version | Previous Version | Graphics & Text | Print | Product List | Glossary On
Versions: 1 2 3 4 5 6 7 8 9 10 11 12 13 14 15 16 17 18 19 20
799
FTUS41 KILN 160726 AAA
TAFLCK
TAF AMD
KLCK 160726Z 1607/1706 27010KT 4SM -SN BR SCT015 OVC035
      TEMPO 1607/1609 1 1/2SM -SN BR BKN015
     FM160900 27006KT P6SM SCT015 BKN070
     FM161200 25007KT P6SM SCT020
     FM161900 26007KT P6SM BKN022
     FM170300 24003KT P6SM BKN015 OVC040=

USA.gov is the U.S. government's official web portal to all federal, state and local government web resources and services.